createdAt,value
2023-02-07T00:02:39.174Z,1.41
2023-02-07T00:06:42.052Z,1.38
2023-02-07T00:10:45.145Z,1.37
2023-02-07T00:14:48.089Z,1.36
2023-02-07T00:18:52.348Z,1.39
2023-02-07T00:22:55.595Z,1.40
2023-02-07T00:26:58.395Z,1.38
2023-02-07T00:31:06.989Z,1.37
2023-02-07T00:35:11.259Z,1.35
2023-02-07T00:39:16.909Z,1.35
2023-02-07T00:43:29.296Z,1.33
2023-02-07T00:47:32.918Z,1.27
2023-02-07T00:51:38.920Z,1.24
2023-02-07T00:55:42.739Z,1.17
2023-02-07T00:59:45.587Z,1.09
2023-02-07T01:03:48.434Z,1.06
2023-02-07T01:07:52.784Z,1.03
2023-02-07T01:11:55.681Z,0.95
2023-02-07T01:16:01.104Z,0.88
2023-02-07T01:20:05.154Z,0.87
2023-02-07T01:24:10.265Z,0.81
2023-02-07T01:28:14.132Z,0.80
2023-02-07T01:32:17.150Z,0.76
2023-02-07T01:36:20.022Z,0.69
2023-02-07T01:40:24.308Z,0.60
2023-02-07T01:45:00.849Z,0.47
2023-02-07T01:49:07.845Z,0.46
2023-02-07T01:53:16.143Z,0.34
2023-02-07T01:57:23.729Z,0.29
2023-02-07T02:01:27.762Z,0.32
2023-02-07T02:05:32.337Z,0.31
2023-02-07T02:09:35.646Z,0.29
2023-02-07T02:13:48.280Z,0.32
2023-02-07T02:18:03.809Z,0.29
2023-02-07T02:22:31.593Z,0.33
2023-02-07T02:26:56.844Z,0.25
2023-02-07T02:31:30.101Z,0.28
2023-02-07T02:35:38.982Z,0.35
2023-02-07T02:39:48.264Z,0.37
2023-02-07T02:43:55.972Z,0.32
2023-02-07T02:47:59.217Z,0.31
2023-02-07T02:52:03.553Z,0.26
2023-02-07T02:56:30.533Z,0.23
2023-02-07T03:00:43.515Z,0.21
2023-02-07T03:05:01.762Z,0.16
2023-02-07T03:09:18.587Z,0.14
2023-02-07T03:13:27.916Z,0.09
2023-02-07T03:17:40.597Z,0.03
2023-02-07T03:21:47.195Z,-0.03
2023-02-07T03:25:53.606Z,-0.07
2023-02-07T03:30:00.123Z,-0.10
2023-02-07T03:34:09.450Z,-0.14
2023-02-07T03:38:12.953Z,-0.15
2023-02-07T03:42:22.792Z,-0.18
2023-02-07T03:46:26.435Z,-0.22
2023-02-07T03:50:29.362Z,-0.25
2023-02-07T03:54:32.454Z,-0.32
2023-02-07T03:58:36.616Z,-0.37
2023-02-07T04:02:39.511Z,-0.41
2023-02-07T04:06:42.340Z,-0.49
2023-02-07T04:10:45.152Z,-0.55
2023-02-07T04:14:49.323Z,-0.62
2023-02-07T04:18:52.171Z,-0.67
2023-02-07T04:22:54.953Z,-0.70
2023-02-07T04:26:58.015Z,-0.72
2023-02-07T04:31:04.120Z,-0.75
2023-02-07T04:35:07.480Z,-0.86
2023-02-07T04:39:10.626Z,-0.88
2023-02-07T04:43:13.484Z,-0.95
2023-02-07T04:47:17.691Z,-0.91
2023-02-07T04:51:20.673Z,-0.89
2023-02-07T04:55:23.758Z,-0.90
2023-02-07T04:59:26.561Z,-0.90
2023-02-07T05:03:30.777Z,-0.91
2023-02-07T05:07:33.671Z,-0.93
2023-02-07T05:11:37.610Z,-0.94
2023-02-07T05:15:40.637Z,-0.97
2023-02-07T05:19:45.019Z,-1.02
2023-02-07T05:23:47.894Z,-1.05
2023-02-07T05:27:50.913Z,-1.07
2023-02-07T05:32:11.216Z,-1.11
2023-02-07T05:36:15.433Z,-1.14
2023-02-07T05:40:18.477Z,-1.17
2023-02-07T05:44:21.331Z,-1.18
2023-02-07T05:48:24.183Z,-1.19
2023-02-07T05:52:28.411Z,-1.23
2023-02-07T05:56:31.273Z,-1.26
2023-02-07T06:00:34.269Z,-1.29
2023-02-07T06:04:37.143Z,-1.31
2023-02-07T06:08:41.331Z,-1.33
2023-02-07T06:12:45.182Z,-1.37
2023-02-07T06:16:48.041Z,-1.36
2023-02-07T06:20:52.105Z,-1.36
2023-02-07T06:24:56.344Z,-1.37
2023-02-07T06:28:59.229Z,-1.40
2023-02-07T06:33:02.068Z,-1.42
2023-02-07T06:37:04.955Z,-1.44
2023-02-07T06:41:11.189Z,-1.47
2023-02-07T06:45:14.021Z,-1.56
2023-02-07T06:49:16.852Z,-1.54
2023-02-07T06:53:19.687Z,-1.54
2023-02-07T06:57:23.883Z,-1.57
2023-02-07T07:01:26.763Z,-1.63
2023-02-07T07:05:30.427Z,-1.62
2023-02-07T07:09:33.402Z,-1.61
2023-02-07T07:13:37.955Z,-1.61
2023-02-07T07:17:40.837Z,-1.62
2023-02-07T07:21:43.700Z,-1.63
2023-02-07T07:25:47.327Z,-1.65
2023-02-07T07:29:51.622Z,-1.63
2023-02-07T07:33:54.784Z,-1.63
2023-02-07T07:37:57.662Z,-1.63
2023-02-07T07:42:00.511Z,-1.64
2023-02-07T07:46:23.909Z,-1.61
2023-02-07T07:50:26.740Z,-1.55
2023-02-07T07:54:30.247Z,-1.50
2023-02-07T07:58:34.148Z,-1.49
2023-02-07T08:02:38.399Z,-1.46
2023-02-07T08:06:41.268Z,-1.42
2023-02-07T08:10:44.498Z,-1.42
2023-02-07T08:14:47.324Z,-1.38
2023-02-07T08:18:51.549Z,-1.34
2023-02-07T08:22:54.535Z,-1.32
2023-02-07T08:26:57.400Z,-1.29
2023-02-07T08:31:02.476Z,-1.27
2023-02-07T08:35:07.429Z,-1.23
2023-02-07T08:39:10.300Z,-1.22
2023-02-07T08:43:13.227Z,-1.12
2023-02-07T08:47:17.896Z,-1.08
2023-02-07T08:51:22.143Z,-0.99
2023-02-07T08:55:25.011Z,-0.95
2023-02-07T08:59:27.931Z,-0.89
2023-02-07T09:03:30.759Z,-0.80
2023-02-07T09:07:34.949Z,-0.70
2023-02-07T09:11:38.422Z,-0.62
2023-02-07T09:15:41.921Z,-0.56
2023-02-07T09:19:44.820Z,-0.46
2023-02-07T09:23:49.111Z,-0.37
2023-02-07T09:27:52.428Z,-0.29
2023-02-07T09:31:55.561Z,-0.17
2023-02-07T09:35:58.415Z,-0.07
2023-02-07T09:40:03.004Z,0.05
2023-02-07T09:44:15.219Z,0.18
2023-02-07T09:48:22.604Z,0.32
2023-02-07T09:52:30.157Z,0.40
2023-02-07T09:56:36.568Z,0.49
2023-02-07T10:00:42.393Z,0.62
2023-02-07T10:04:49.354Z,0.70
2023-02-07T10:08:56.006Z,0.80
2023-02-07T10:13:11.595Z,0.84
2023-02-07T10:17:31.983Z,0.91
2023-02-07T10:21:42.171Z,0.97
2023-02-07T10:25:57.778Z,1.07
2023-02-07T10:30:11.440Z,1.16
2023-02-07T10:34:16.628Z,1.25
2023-02-07T10:38:30.740Z,1.38
2023-02-07T10:42:38.747Z,1.55
2023-02-07T10:46:45.420Z,1.70
2023-02-07T10:50:48.353Z,1.78
2023-02-07T10:54:54.768Z,1.90
2023-02-07T10:58:58.812Z,1.97
2023-02-07T11:03:07.372Z,2.00
2023-02-07T11:07:16.343Z,2.12
2023-02-07T11:11:27.044Z,2.25
2023-02-07T11:15:47.200Z,2.35
2023-02-07T11:19:51.476Z,2.50
2023-02-07T11:23:56.902Z,2.59
2023-02-07T11:28:00.384Z,2.65
2023-02-07T11:32:04.386Z,2.67
2023-02-07T11:36:13.022Z,2.79
2023-02-07T11:40:25.004Z,2.89
2023-02-07T11:44:30.705Z,3.00
2023-02-07T11:48:37.733Z,3.09
2023-02-07T11:52:52.208Z,3.16
2023-02-07T11:57:01.716Z,3.24
2023-02-07T12:01:08.132Z,3.33
2023-02-07T12:05:19.268Z,3.36
2023-02-07T12:09:31.999Z,3.42
2023-02-07T12:13:40.427Z,3.60
2023-02-07T12:17:58.814Z,3.85
2023-02-07T12:22:07.945Z,3.92
2023-02-07T12:26:20.949Z,4.03
2023-02-07T12:30:34.507Z,4.13
2023-02-07T12:34:44.756Z,4.28
2023-02-07T12:38:54.587Z,4.42
2023-02-07T12:43:03.688Z,4.41
2023-02-07T12:47:16.517Z,4.43
2023-02-07T12:51:33.258Z,4.46
2023-02-07T12:55:46.197Z,4.62
2023-02-07T13:00:04.745Z,4.64
2023-02-07T13:04:33.557Z,4.62
2023-02-07T13:08:45.635Z,4.72
2023-02-07T13:12:54.491Z,4.74
2023-02-07T13:17:15.566Z,4.77
2023-02-07T13:21:24.388Z,4.81
2023-02-07T13:25:31.382Z,4.83
2023-02-07T13:29:37.181Z,4.87
2023-02-07T13:33:42.113Z,4.88
2023-02-07T13:37:53.940Z,4.89
2023-02-07T13:42:09.919Z,4.89
2023-02-07T13:46:27.633Z,4.91
2023-02-07T13:50:40.941Z,5.01
2023-02-07T13:54:56.288Z,5.06
2023-02-07T13:59:16.949Z,5.14
2023-02-07T14:03:22.200Z,5.11
2023-02-07T14:07:29.731Z,5.11
2023-02-07T14:11:38.334Z,5.13
2023-02-07T14:15:57.525Z,5.19
2023-02-07T14:20:01.252Z,5.25
2023-02-07T14:24:20.257Z,5.32
2023-02-07T14:28:33.154Z,5.40
2023-02-07T14:32:43.263Z,5.51
2023-02-07T14:36:47.582Z,5.64
2023-02-07T14:41:10.205Z,5.67
2023-02-07T14:45:20.675Z,5.65
2023-02-07T14:49:31.299Z,5.58
2023-02-07T14:53:34.149Z,5.58
2023-02-07T14:57:47.316Z,5.62
2023-02-07T15:01:50.164Z,5.64
2023-02-07T15:05:55.809Z,5.57
2023-02-07T15:09:58.704Z,5.58
2023-02-07T15:14:04.998Z,5.55
2023-02-07T15:18:13.677Z,5.52
2023-02-07T15:22:26.794Z,5.52
2023-02-07T15:26:30.015Z,5.53
2023-02-07T15:30:34.915Z,5.44
2023-02-07T15:34:37.810Z,5.39
2023-02-07T15:38:41.040Z,5.33
2023-02-07T15:42:52.452Z,5.27
2023-02-07T15:46:58.888Z,5.12
2023-02-07T15:51:04.503Z,5.03
2023-02-07T15:55:19.030Z,4.86
2023-02-07T15:59:24.794Z,4.71
2023-02-07T16:03:31.834Z,4.64
2023-02-07T16:07:37.157Z,4.58
2023-02-07T16:11:41.260Z,4.54
2023-02-07T16:15:54.529Z,4.47
2023-02-07T16:19:58.890Z,4.41
2023-02-07T16:24:07.713Z,4.30
2023-02-07T16:28:16.583Z,4.21
2023-02-07T16:32:21.950Z,4.12
2023-02-07T16:36:35.713Z,4.01
2023-02-07T16:40:40.234Z,3.89
2023-02-07T16:44:46.501Z,3.80
2023-02-07T16:48:49.534Z,3.71
2023-02-07T16:52:57.197Z,3.59
2023-02-07T16:57:03.935Z,3.49
2023-02-07T17:01:08.790Z,3.45
2023-02-07T17:05:12.249Z,3.38
2023-02-07T17:09:18.443Z,3.27
2023-02-07T17:13:21.940Z,3.19
2023-02-07T17:17:33.830Z,3.09
2023-02-07T17:21:37.459Z,2.95
2023-02-07T17:25:44.491Z,2.85
2023-02-07T17:29:48.341Z,2.79
2023-02-07T17:33:52.174Z,2.71
2023-02-07T17:37:55.526Z,2.60
2023-02-07T17:42:03.014Z,2.44
2023-02-07T17:46:17.766Z,2.31
2023-02-07T17:50:23.665Z,2.23
2023-02-07T17:54:26.918Z,2.17
2023-02-07T17:58:31.647Z,2.08
2023-02-07T18:02:35.438Z,2.01
2023-02-07T18:06:38.291Z,1.90
2023-02-07T18:10:41.938Z,1.81
2023-02-07T18:14:47.074Z,1.67
2023-02-07T18:18:54.024Z,1.58
2023-02-07T18:23:00.273Z,1.51
2023-02-07T18:27:03.410Z,1.45
2023-02-07T18:31:16.161Z,1.36
2023-02-07T18:35:25.499Z,1.26
2023-02-07T18:39:29.198Z,1.20
2023-02-07T18:43:34.764Z,1.13
2023-02-07T18:47:39.182Z,1.07
2023-02-07T18:51:42.250Z,1.03
2023-02-07T18:55:45.383Z,0.96
2023-02-07T18:59:48.363Z,0.90
2023-02-07T19:04:20.668Z,0.76
2023-02-07T19:08:27.115Z,0.68
2023-02-07T19:12:44.600Z,0.64
2023-02-07T19:17:11.615Z,0.61
2023-02-07T19:21:20.893Z,0.59
2023-02-07T19:25:24.453Z,0.54
2023-02-07T19:29:30.196Z,0.50
2023-02-07T19:33:34.959Z,0.45
2023-02-07T19:37:45.183Z,0.36
2023-02-07T19:41:48.782Z,0.32
2023-02-07T19:45:53.995Z,0.29
2023-02-07T19:49:57.685Z,0.24
2023-02-07T19:54:04.013Z,0.22
2023-02-07T19:58:09.739Z,0.20
2023-02-07T20:02:14.846Z,0.17
2023-02-07T20:06:20.409Z,0.16
2023-02-07T20:10:24.951Z,0.14
2023-02-07T20:14:29.285Z,0.07
2023-02-07T20:18:33.524Z,0.02
2023-02-07T20:22:36.873Z,0.00
2023-02-07T20:26:43.918Z,-0.06
2023-02-07T20:30:47.472Z,-0.07
2023-02-07T20:34:50.716Z,-0.12
2023-02-07T20:38:54.798Z,-0.17
2023-02-07T20:42:59.324Z,-0.22
2023-02-07T20:47:12.046Z,-0.28
2023-02-07T20:51:14.895Z,-0.29
2023-02-07T20:55:24.864Z,-0.32
2023-02-07T20:59:41.656Z,-0.36
2023-02-07T21:03:46.895Z,-0.38
2023-02-07T21:07:49.812Z,-0.42
2023-02-07T21:11:54.292Z,-0.49
2023-02-07T21:16:05.406Z,-0.53
2023-02-07T21:20:10.731Z,-0.53
2023-02-07T21:24:14.753Z,-0.55
2023-02-07T21:28:18.143Z,-0.56
2023-02-07T21:32:24.523Z,-0.60
2023-02-07T21:36:29.826Z,-0.61
2023-02-07T21:40:33.188Z,-0.62
2023-02-07T21:44:39.349Z,-0.63
2023-02-07T21:49:03.800Z,-0.67
2023-02-07T21:53:18.209Z,-0.70
2023-02-07T21:57:21.838Z,-0.74
2023-02-07T22:01:25.746Z,-0.76
2023-02-07T22:05:30.038Z,-0.78
2023-02-07T22:09:33.333Z,-0.80
2023-02-07T22:13:38.423Z,-0.86
2023-02-07T22:17:41.340Z,-0.87
2023-02-07T22:21:51.926Z,-0.89
2023-02-07T22:25:55.336Z,-0.96
2023-02-07T22:29:58.479Z,-0.97
2023-02-07T22:34:04.978Z,-0.97
2023-02-07T22:38:10.947Z,-1.02
2023-02-07T22:42:14.660Z,-1.04
2023-02-07T22:46:19.594Z,-1.12
2023-02-07T22:50:22.539Z,-1.20
2023-02-07T22:54:26.889Z,-1.16
2023-02-07T22:58:30.376Z,-1.14
2023-02-07T23:02:33.675Z,-1.16
2023-02-07T23:06:36.928Z,-1.18
2023-02-07T23:10:43.426Z,-1.17
2023-02-07T23:14:46.624Z,-1.19
2023-02-07T23:18:50.637Z,-1.24
2023-02-07T23:22:53.576Z,-1.26
2023-02-07T23:26:57.935Z,-1.26
2023-02-07T23:31:01.598Z,-1.29
2023-02-07T23:35:05.559Z,-1.32
2023-02-07T23:39:09.056Z,-1.34
2023-02-07T23:43:13.888Z,-1.37
2023-02-07T23:47:18.759Z,-1.37
2023-02-07T23:51:22.734Z,-1.40
2023-02-07T23:55:26.163Z,-1.46
2023-02-07T23:59:32.375Z,-1.50
